Time;durP1;ratioP1;P1;durP2;ratioP2;P2;SDS_P1;SDS_P2;PMS_P1;PMS_P2;Temp;Humidity;BMP_temperature;BMP_pressure;BME280_temperature;BME280_humidity;BME280_pressure;Samples;Min_cycle;Max_cycle;Signal;HPM_P1;HPM_P2
2022/02/16 00:00:39;;;;;;;11.00;7.63;;;10.10;99.90;;;;;;5089861;28;20106;-75
2022/02/16 00:03:05;;;;;;;10.52;7.90;;;10.10;99.90;;;;;;5089701;28;20071;-74
2022/02/16 00:05:31;;;;;;;11.48;8.38;;;10.20;99.90;;;;;;5090374;28;20492;-74
2022/02/16 00:07:56;;;;;;;9.95;7.95;;;10.10;99.90;;;;;;5088939;28;20035;-74
2022/02/16 00:10:22;;;;;;;10.43;8.15;;;10.10;99.90;;;;;;5087252;28;20044;-74
2022/02/16 00:12:48;;;;;;;8.32;7.47;;;10.10;99.90;;;;;;5092539;28;20071;-74
2022/02/16 00:15:14;;;;;;;11.75;8.32;;;10.10;99.90;;;;;;5093058;28;20039;-74
2022/02/16 00:17:41;;;;;;;9.95;7.43;;;10.10;99.90;;;;;;5085235;28;20016;-74
2022/02/16 00:20:08;;;;;;;7.95;7.05;;;10.20;99.90;;;;;;5090805;28;20059;-74
2022/02/16 00:22:34;;;;;;;8.48;6.97;;;10.20;99.90;;;;;;5090496;28;20035;-74
2022/02/16 00:25:01;;;;;;;10.68;7.30;;;10.10;99.90;;;;;;5092329;28;20012;-74
2022/02/16 00:27:27;;;;;;;8.50;7.60;;;10.10;99.90;;;;;;5089137;28;20024;-74
2022/02/16 00:29:52;;;;;;;8.65;7.45;;;10.20;99.90;;;;;;5091881;28;20028;-75
2022/02/16 00:32:18;;;;;;;11.85;7.30;;;10.20;99.90;;;;;;5084762;28;20080;-74
2022/02/16 00:34:44;;;;;;;9.43;8.15;;;10.20;99.90;;;;;;5086166;28;20480;-74
2022/02/16 00:37:09;;;;;;;8.40;7.28;;;10.20;99.90;;;;;;5092850;28;20051;-74
2022/02/16 00:39:35;;;;;;;11.18;7.70;;;10.10;99.90;;;;;;5090165;28;20457;-74
2022/02/16 00:42:01;;;;;;;10.18;7.53;;;10.20;99.90;;;;;;5092055;28;20032;-75
2022/02/16 00:44:26;;;;;;;12.65;7.95;;;10.20;99.90;;;;;;5089372;28;20032;-74
2022/02/16 00:46:52;;;;;;;10.32;7.75;;;10.30;99.90;;;;;;5087801;28;20039;-74
2022/02/16 00:49:18;;;;;;;10.90;8.68;;;10.10;99.90;;;;;;5088017;28;20103;-74
2022/02/16 00:51:44;;;;;;;12.35;9.40;;;10.20;99.90;;;;;;5088066;28;20034;-73
2022/02/16 00:54:10;;;;;;;11.02;8.88;;;10.20;99.90;;;;;;5086550;28;20032;-73
2022/02/16 00:56:36;;;;;;;11.32;8.35;;;10.30;99.90;;;;;;5087605;28;20032;-74
2022/02/16 00:59:02;;;;;;;7.63;6.82;;;10.20;99.90;;;;;;5091149;28;20150;-74
2022/02/16 01:01:28;;;;;;;11.02;7.47;;;10.30;99.90;;;;;;5089431;28;20099;-74
2022/02/16 01:03:53;;;;;;;11.48;8.15;;;10.30;99.90;;;;;;5085054;28;20028;-74
2022/02/16 01:06:19;;;;;;;10.30;8.00;;;10.30;99.90;;;;;;5084445;28;20024;-75
2022/02/16 01:08:45;;;;;;;9.27;7.43;;;10.20;99.90;;;;;;5087424;28;20056;-74
2022/02/16 01:11:10;;;;;;;13.50;8.27;;;10.30;99.90;;;;;;5090673;28;20022;-75
2022/02/16 01:13:36;;;;;;;10.27;7.80;;;10.30;99.90;;;;;;5084172;28;20028;-74
2022/02/16 01:16:02;;;;;;;12.77;9.10;;;10.30;99.90;;;;;;5088570;28;20108;-74
2022/02/16 01:18:28;;;;;;;11.90;9.13;;;10.30;99.90;;;;;;5092339;28;20035;-74
2022/02/16 01:20:53;;;;;;;14.05;7.57;;;10.20;99.90;;;;;;5085750;28;20115;-74
2022/02/16 01:23:19;;;;;;;11.48;8.43;;;10.30;99.90;;;;;;5090817;28;20087;-74
2022/02/16 01:25:45;;;;;;;8.10;6.38;;;10.30;99.90;;;;;;5085189;28;20028;-74
2022/02/16 01:28:10;;;;;;;9.43;7.25;;;10.30;99.90;;;;;;5089905;28;20115;-75
2022/02/16 01:30:36;;;;;;;10.40;7.35;;;10.30;99.90;;;;;;5087019;28;20545;-74
2022/02/16 01:33:02;;;;;;;7.57;6.63;;;10.30;99.90;;;;;;5088967;28;20035;-74
2022/02/16 01:35:28;;;;;;;8.02;6.53;;;10.30;99.90;;;;;;5090074;28;20066;-74
2022/02/16 01:37:53;;;;;;;7.78;6.45;;;10.30;99.90;;;;;;5094102;28;20016;-77
2022/02/16 01:40:19;;;;;;;9.07;6.70;;;10.30;99.90;;;;;;5086709;28;20507;-75
2022/02/16 01:42:46;;;;;;;12.15;7.90;;;10.20;99.90;;;;;;5085479;28;20472;-74
2022/02/16 01:45:12;;;;;;;10.98;8.18;;;10.30;99.90;;;;;;5085312;28;20059;-74
2022/02/16 01:47:38;;;;;;;10.70;6.93;;;10.30;99.90;;;;;;5085762;28;20024;-74
2022/02/16 01:50:06;;;;;;;10.18;7.20;;;10.30;99.90;;;;;;5091325;28;20027;-74
2022/02/16 01:52:32;;;;;;;10.80;7.32;;;10.30;99.90;;;;;;5085230;28;20020;-74
2022/02/16 01:54:58;;;;;;;12.07;8.60;;;10.30;99.90;;;;;;5091061;28;20077;-74
2022/02/16 01:57:24;;;;;;;10.48;7.57;;;10.30;99.90;;;;;;5090151;28;20023;-73
2022/02/16 01:59:50;;;;;;;9.52;7.30;;;10.30;99.90;;;;;;5085729;28;20035;-74
2022/02/16 02:02:16;;;;;;;8.93;7.55;;;10.30;99.90;;;;;;5088157;28;20027;-76
2022/02/16 02:04:41;;;;;;;9.02;7.05;;;10.30;99.90;;;;;;5084783;28;20024;-74
2022/02/16 02:07:07;;;;;;;7.45;6.40;;;10.40;99.90;;;;;;5090538;28;20138;-74
2022/02/16 02:09:33;;;;;;;11.90;7.30;;;10.40;99.90;;;;;;5084095;28;20150;-75
2022/02/16 02:11:59;;;;;;;10.05;7.68;;;10.40;99.90;;;;;;5090724;28;20020;-75
2022/02/16 02:14:24;;;;;;;9.70;7.10;;;10.30;99.90;;;;;;5081466;28;20032;-74
2022/02/16 02:16:50;;;;;;;10.70;7.47;;;10.30;99.90;;;;;;5090308;28;20024;-74
2022/02/16 02:19:16;;;;;;;9.35;7.35;;;10.30;99.90;;;;;;5084954;28;20395;-74
2022/02/16 02:21:46;;;;;;;6.43;5.82;;;10.30;99.90;;;;;;5088351;28;20104;-75
2022/02/16 02:24:12;;;;;;;9.65;6.90;;;10.30;99.90;;;;;;5087022;28;20012;-74
2022/02/16 02:26:37;;;;;;;9.05;6.40;;;10.30;99.90;;;;;;5090241;28;20491;-75
2022/02/16 02:29:03;;;;;;;8.70;6.88;;;10.30;99.90;;;;;;5085032;28;20051;-74
2022/02/16 02:31:30;;;;;;;8.13;6.60;;;10.30;99.90;;;;;;5090328;28;20016;-74
2022/02/16 02:33:57;;;;;;;9.43;6.78;;;10.30;99.90;;;;;;5084127;28;20060;-74
2022/02/16 02:36:23;;;;;;;6.93;6.15;;;10.20;99.90;;;;;;5085811;28;20024;-74
2022/02/16 02:38:49;;;;;;;9.18;6.75;;;10.20;99.90;;;;;;5089597;28;20031;-74
2022/02/16 02:41:15;;;;;;;8.30;6.43;;;10.20;99.90;;;;;;5086866;28;20050;-75
2022/02/16 02:43:43;;;;;;;9.27;6.68;;;10.30;99.90;;;;;;5086631;28;20040;-75
2022/02/16 02:46:09;;;;;;;7.93;6.05;;;10.30;99.90;;;;;;5084970;28;20106;-74
2022/02/16 02:48:35;;;;;;;8.57;6.05;;;10.30;99.90;;;;;;5085564;28;20013;-75
2022/02/16 02:51:01;;;;;;;6.80;5.88;;;10.30;99.90;;;;;;5088831;28;20058;-74
2022/02/16 02:53:27;;;;;;;6.25;5.43;;;10.30;99.90;;;;;;5084226;28;20067;-73
2022/02/16 02:55:53;;;;;;;6.38;5.78;;;10.30;99.90;;;;;;5092255;28;20024;-74
2022/02/16 02:58:18;;;;;;;7.57;6.03;;;10.40;99.90;;;;;;5088695;28;20024;-75
2022/02/16 03:00:44;;;;;;;6.32;5.72;;;10.30;99.90;;;;;;5088517;28;20028;-74
2022/02/16 03:03:10;;;;;;;8.50;7.00;;;10.30;99.90;;;;;;5084077;28;20028;-74
2022/02/16 03:05:35;;;;;;;6.72;6.05;;;10.30;99.90;;;;;;5093545;28;20020;-75
2022/02/16 03:08:01;;;;;;;7.88;6.70;;;10.30;99.90;;;;;;5086791;28;20027;-74
2022/02/16 03:10:27;;;;;;;9.45;6.78;;;10.30;99.90;;;;;;5094595;28;20449;-74
2022/02/16 03:12:53;;;;;;;7.75;6.53;;;10.30;99.90;;;;;;5086436;28;20036;-75
2022/02/16 03:15:18;;;;;;;6.45;5.82;;;10.30;99.90;;;;;;5094248;28;20024;-74
2022/02/16 03:17:44;;;;;;;5.50;5.00;;;10.30;99.90;;;;;;5092084;28;20024;-75
2022/02/16 03:20:10;;;;;;;5.22;4.68;;;10.40;99.90;;;;;;5090964;28;20028;-74
2022/02/16 03:22:39;;;;;;;6.05;5.45;;;10.40;99.90;;;;;;5089918;28;20099;-74
2022/02/16 03:25:07;;;;;;;6.00;5.07;;;10.40;99.90;;;;;;5091585;28;20109;-74
2022/02/16 03:27:33;;;;;;;7.00;5.80;;;10.40;99.90;;;;;;5086339;28;20028;-74
2022/02/16 03:29:59;;;;;;;7.03;5.90;;;10.30;99.90;;;;;;5093329;28;20025;-75
2022/02/16 03:32:25;;;;;;;7.95;5.68;;;10.40;99.90;;;;;;5091832;28;20020;-74
2022/02/16 03:34:51;;;;;;;6.00;5.45;;;10.40;99.90;;;;;;5094907;28;20040;-74
2022/02/16 03:37:16;;;;;;;5.50;4.68;;;10.50;99.90;;;;;;5086930;28;20025;-74
2022/02/16 03:39:42;;;;;;;7.07;5.53;;;10.40;99.90;;;;;;5088760;28;20485;-74
2022/02/16 03:42:08;;;;;;;6.13;4.68;;;10.50;99.90;;;;;;5092212;28;20024;-74
2022/02/16 03:44:34;;;;;;;7.40;5.00;;;10.40;99.90;;;;;;5089159;28;20421;-74
2022/02/16 03:46:59;;;;;;;5.45;5.05;;;10.40;99.90;;;;;;5093086;28;20012;-74
2022/02/16 03:49:26;;;;;;;5.50;4.70;;;10.40;99.90;;;;;;5088662;28;20058;-74
2022/02/16 03:51:51;;;;;;;4.90;4.50;;;10.30;99.90;;;;;;5091094;28;20443;-74
2022/02/16 03:54:17;;;;;;;5.30;4.80;;;10.40;99.90;;;;;;5088111;28;20032;-74
2022/02/16 03:56:44;;;;;;;4.40;4.10;;;10.40;99.90;;;;;;5093164;28;20039;-74
2022/02/16 03:59:10;;;;;;;4.65;4.25;;;10.40;99.90;;;;;;5094346;28;20031;-74
2022/02/16 04:01:36;;;;;;;5.18;4.28;;;10.50;99.90;;;;;;5092092;28;20103;-74
2022/02/16 04:04:01;;;;;;;5.25;4.47;;;10.40;99.90;;;;;;5086432;28;20020;-74
2022/02/16 04:06:27;;;;;;;4.20;3.80;;;10.50;99.90;;;;;;5089138;28;20029;-74
2022/02/16 04:08:52;;;;;;;4.22;3.88;;;10.40;99.90;;;;;;5091919;28;20442;-74
2022/02/16 04:11:26;;;;;;;4.47;3.80;;;10.40;99.90;;;;;;5085671;28;20032;-75
2022/02/16 04:13:53;;;;;;;4.53;4.00;;;10.40;99.90;;;;;;5091633;28;20072;-74
2022/02/16 04:16:19;;;;;;;3.75;3.38;;;10.40;99.90;;;;;;5085457;28;20480;-74
2022/02/16 04:18:44;;;;;;;5.93;3.45;;;10.30;99.90;;;;;;5093851;28;20035;-74
2022/02/16 04:21:10;;;;;;;4.47;4.07;;;10.30;99.90;;;;;;5091343;28;20025;-74
2022/02/16 04:23:35;;;;;;;4.13;3.47;;;10.40;99.90;;;;;;5085248;28;20039;-74
2022/02/16 04:26:01;;;;;;;4.05;3.58;;;10.40;99.90;;;;;;5089328;28;20900;-75
2022/02/16 04:28:27;;;;;;;3.63;3.25;;;10.40;99.90;;;;;;5088604;28;20024;-74
2022/02/16 04:30:53;;;;;;;4.60;4.10;;;10.40;99.90;;;;;;5085740;28;20453;-75
2022/02/16 04:33:19;;;;;;;5.20;4.47;;;10.40;99.90;;;;;;5090091;28;20393;-75
2022/02/16 04:35:45;;;;;;;5.13;4.40;;;10.30;99.90;;;;;;5086625;28;20032;-74
2022/02/16 04:38:10;;;;;;;5.05;4.45;;;10.40;99.90;;;;;;5088564;28;20013;-74
2022/02/16 04:40:37;;;;;;;4.40;4.00;;;10.50;99.90;;;;;;5092304;28;20024;-75
2022/02/16 04:43:05;;;;;;;5.68;4.72;;;10.40;99.90;;;;;;5090850;28;20050;-74
2022/02/16 04:45:34;;;;;;;4.97;4.50;;;10.50;99.90;;;;;;5086415;28;20514;-74
2022/02/16 04:48:02;;;;;;;5.10;4.40;;;10.50;99.90;;;;;;5091847;28;20032;-74
2022/02/16 04:50:28;;;;;;;4.60;4.25;;;10.50;99.90;;;;;;5087180;28;20024;-74
2022/02/16 04:52:54;;;;;;;5.38;4.88;;;10.40;99.90;;;;;;5092354;28;20038;-74
2022/02/16 04:55:21;;;;;;;5.25;4.85;;;10.40;99.90;;;;;;5088909;28;20062;-75
2022/02/16 04:57:47;;;;;;;4.13;3.83;;;10.40;99.90;;;;;;5083846;28;20023;-74
2022/02/16 05:00:13;;;;;;;5.18;4.68;;;10.40;99.90;;;;;;5090972;28;20123;-75
2022/02/16 05:02:39;;;;;;;4.72;4.30;;;10.40;99.90;;;;;;5085776;28;20282;-74
2022/02/16 05:05:06;;;;;;;4.93;4.13;;;10.40;99.90;;;;;;5088299;28;20020;-74
2022/02/16 05:07:32;;;;;;;4.88;4.38;;;10.40;99.90;;;;;;5090893;28;20028;-74
2022/02/16 05:09:57;;;;;;;4.95;4.05;;;10.40;99.90;;;;;;5087479;28;20023;-75
2022/02/16 05:12:23;;;;;;;4.72;4.25;;;10.40;99.90;;;;;;5088758;28;20036;-75
2022/02/16 05:14:49;;;;;;;5.00;4.43;;;10.50;99.90;;;;;;5086316;28;20062;-75
2022/02/16 05:17:14;;;;;;;3.53;3.22;;;10.50;99.90;;;;;;5088310;28;20475;-77
2022/02/16 05:19:40;;;;;;;5.38;3.45;;;10.50;99.90;;;;;;5089281;28;20035;-75
2022/02/16 05:22:06;;;;;;;3.78;3.47;;;10.50;99.90;;;;;;5086762;28;20021;-74
2022/02/16 05:24:31;;;;;;;3.90;3.60;;;10.50;99.90;;;;;;5093687;28;20028;-75
2022/02/16 05:26:57;;;;;;;3.72;3.42;;;10.50;99.90;;;;;;5086170;28;20024;-75
2022/02/16 05:29:23;;;;;;;4.00;3.70;;;10.50;99.90;;;;;;5083704;28;20032;-74
2022/02/16 05:31:48;;;;;;;3.58;2.88;;;10.50;99.90;;;;;;5088078;28;20524;-75
2022/02/16 05:34:16;;;;;;;3.33;3.13;;;10.50;99.90;;;;;;5086798;28;20480;-75
2022/02/16 05:36:42;;;;;;;3.25;2.97;;;10.50;99.90;;;;;;5088146;28;20456;-75
2022/02/16 05:39:08;;;;;;;3.38;3.08;;;10.50;99.90;;;;;;5091268;28;20491;-75
2022/02/16 05:41:34;;;;;;;3.92;3.63;;;10.50;99.90;;;;;;5087139;28;20071;-76
2022/02/16 05:43:59;;;;;;;3.40;3.10;;;10.60;99.90;;;;;;5084139;28;20064;-75
2022/02/16 05:46:25;;;;;;;4.07;2.70;;;10.50;99.90;;;;;;5092814;28;20020;-75
2022/02/16 05:48:50;;;;;;;2.53;2.38;;;10.50;99.90;;;;;;5091993;28;20027;-75
2022/02/16 05:51:16;;;;;;;2.35;2.20;;;10.40;99.90;;;;;;5083653;28;20024;-75
2022/02/16 05:53:43;;;;;;;2.40;2.20;;;10.40;99.90;;;;;;5087791;28;20036;-75
2022/02/16 05:56:09;;;;;;;2.30;2.10;;;10.50;99.90;;;;;;5093527;28;20056;-74
2022/02/16 05:58:35;;;;;;;4.30;1.95;;;10.50;99.90;;;;;;5091239;28;20369;-75
2022/02/16 06:01:01;;;;;;;2.53;1.80;;;10.50;99.90;;;;;;5088745;28;20035;-74
2022/02/16 06:03:26;;;;;;;2.13;1.92;;;10.40;99.90;;;;;;5089248;28;20036;-74
2022/02/16 06:05:52;;;;;;;1.98;1.60;;;10.40;99.90;;;;;;5093284;28;20020;-75
2022/02/16 06:08:18;;;;;;;1.90;1.80;;;10.40;99.90;;;;;;5091096;28;20050;-74
2022/02/16 06:10:44;;;;;;;2.13;2.03;;;10.50;99.90;;;;;;5090629;28;20028;-74
2022/02/16 06:13:09;;;;;;;3.25;2.10;;;10.40;99.90;;;;;;5088764;28;20127;-75
2022/02/16 06:15:35;;;;;;;2.65;1.63;;;10.50;99.90;;;;;;5093324;28;20039;-74
2022/02/16 06:18:01;;;;;;;2.10;1.85;;;10.50;99.90;;;;;;5091086;28;20385;-74
2022/02/16 06:20:27;;;;;;;1.70;1.60;;;10.40;99.90;;;;;;5090223;28;20024;-75
2022/02/16 06:22:53;;;;;;;1.90;1.80;;;10.50;99.90;;;;;;5088633;28;20039;-75
2022/02/16 06:25:19;;;;;;;2.40;1.60;;;10.50;99.90;;;;;;5085224;28;20028;-75
2022/02/16 06:27:45;;;;;;;1.60;1.50;;;10.50;99.90;;;;;;5088514;28;20032;-74
2022/02/16 06:30:11;;;;;;;1.50;1.40;;;10.50;99.90;;;;;;5087625;28;20023;-74
2022/02/16 06:32:36;;;;;;;2.63;1.23;;;10.40;99.90;;;;;;5087176;28;20028;-75
2022/02/16 06:35:03;;;;;;;1.55;1.45;;;10.40;99.90;;;;;;5084021;28;20450;-74
2022/02/16 06:37:29;;;;;;;1.70;1.60;;;10.50;99.90;;;;;;5090576;28;20024;-74
2022/02/16 06:39:55;;;;;;;1.27;1.25;;;10.50;99.90;;;;;;5081793;28;20024;-74
2022/02/16 06:42:20;;;;;;;1.38;1.27;;;10.60;99.90;;;;;;5088402;28;20028;-74
2022/02/16 06:44:46;;;;;;;1.23;1.13;;;10.50;99.90;;;;;;5084504;28;20038;-75
2022/02/16 06:47:12;;;;;;;1.77;1.00;;;10.50;99.90;;;;;;5089217;28;20056;-75
2022/02/16 06:49:38;;;;;;;2.00;1.77;;;10.50;99.90;;;;;;5083653;28;20116;-76
2022/02/16 06:52:04;;;;;;;1.92;1.83;;;10.50;99.90;;;;;;5089892;28;20041;-76
2022/02/16 06:54:31;;;;;;;1.90;1.42;;;10.60;99.90;;;;;;5083224;28;20032;-75
2022/02/16 06:56:58;;;;;;;1.60;1.50;;;10.60;99.90;;;;;;5087764;28;21251;-75
2022/02/16 06:59:23;;;;;;;1.80;1.70;;;10.60;99.90;;;;;;5089250;28;20062;-75
2022/02/16 07:01:49;;;;;;;2.08;1.83;;;10.60;99.90;;;;;;5091442;28;20132;-76
2022/02/16 07:04:15;;;;;;;1.50;1.23;;;10.60;99.90;;;;;;5089426;28;20388;-75
2022/02/16 07:06:40;;;;;;;1.88;1.50;;;10.50;99.90;;;;;;5084988;28;20020;-75
2022/02/16 07:09:06;;;;;;;2.67;2.10;;;10.60;99.90;;;;;;5086240;28;20032;-75
2022/02/16 07:11:31;;;;;;;2.28;1.80;;;10.70;99.90;;;;;;5087248;28;20020;-76
2022/02/16 07:13:57;;;;;;;1.80;1.70;;;10.60;99.90;;;;;;5087707;28;20029;-76
2022/02/16 07:16:23;;;;;;;1.80;1.70;;;10.70;99.90;;;;;;5087903;28;20028;-75
2022/02/16 07:18:49;;;;;;;1.60;1.50;;;10.70;99.90;;;;;;5085981;28;20039;-76
2022/02/16 07:21:14;;;;;;;1.50;1.40;;;10.70;99.90;;;;;;5082014;28;20039;-75
2022/02/16 07:23:40;;;;;;;1.90;1.80;;;10.60;99.90;;;;;;5089461;28;20027;-77
2022/02/16 07:26:06;;;;;;;1.52;1.42;;;10.70;99.90;;;;;;5084351;28;20495;-76
2022/02/16 07:28:32;;;;;;;3.97;1.98;;;10.80;99.90;;;;;;5080887;28;20095;-76
2022/02/16 07:30:58;;;;;;;2.08;1.67;;;10.80;99.90;;;;;;5089193;28;20141;-76
2022/02/16 07:33:24;;;;;;;2.67;1.85;;;10.80;99.90;;;;;;5090217;28;20396;-75
2022/02/16 07:35:50;;;;;;;2.03;1.80;;;10.80;99.90;;;;;;5084551;28;20026;-76
2022/02/16 07:38:16;;;;;;;1.70;1.55;;;10.80;99.90;;;;;;5090359;28;20039;-75
2022/02/16 07:40:42;;;;;;;1.80;1.70;;;10.80;99.90;;;;;;5079417;28;20453;-76
2022/02/16 07:43:08;;;;;;;2.17;1.95;;;10.80;99.90;;;;;;5087781;28;20093;-76
2022/02/16 07:45:34;;;;;;;1.85;1.65;;;10.90;99.90;;;;;;5085867;28;20081;-75
2022/02/16 07:48:02;;;;;;;2.70;2.20;;;10.90;99.90;;;;;;5088115;28;20487;-76
2022/02/16 07:50:28;;;;;;;2.28;2.10;;;11.00;99.90;;;;;;5087507;28;20020;-75
2022/02/16 07:52:55;;;;;;;2.53;2.30;;;10.90;99.90;;;;;;5092667;28;20100;-76
2022/02/16 07:55:21;;;;;;;3.15;2.22;;;11.00;99.90;;;;;;5089094;28;20046;-76
2022/02/16 07:57:47;;;;;;;4.25;2.28;;;11.00;99.90;;;;;;5084222;28;20028;-76
2022/02/16 08:00:14;;;;;;;2.55;2.35;;;11.00;99.90;;;;;;5089685;28;20473;-75
2022/02/16 08:02:39;;;;;;;4.82;2.67;;;11.00;99.90;;;;;;5093806;28;20511;-77
2022/02/16 08:05:05;;;;;;;3.25;2.95;;;11.00;99.90;;;;;;5090458;28;20024;-75
2022/02/16 08:07:31;;;;;;;3.45;2.80;;;11.10;99.90;;;;;;5089939;28;20021;-76
2022/02/16 08:09:56;;;;;;;3.58;3.17;;;11.10;99.90;;;;;;5091858;28;20020;-74
2022/02/16 08:12:22;;;;;;;3.85;3.33;;;11.10;99.90;;;;;;5085443;28;20531;-74
2022/02/16 08:14:48;;;;;;;5.05;3.13;;;11.10;99.90;;;;;;5087169;28;20036;-74
2022/02/16 08:17:13;;;;;;;3.78;3.47;;;11.10;99.90;;;;;;5090346;28;20020;-74
2022/02/16 08:19:39;;;;;;;3.75;3.15;;;11.20;99.90;;;;;;5088848;28;20060;-74
2022/02/16 08:22:04;;;;;;;3.55;3.35;;;11.10;99.90;;;;;;5091250;28;20072;-74
2022/02/16 08:24:30;;;;;;;4.22;3.83;;;11.20;99.90;;;;;;5083514;28;20450;-74
2022/02/16 08:26:56;;;;;;;4.45;4.05;;;11.20;99.90;;;;;;5086159;28;20068;-74
2022/02/16 08:29:25;;;;;;;5.47;4.97;;;11.20;99.90;;;;;;5088926;28;20074;-74
2022/02/16 08:31:52;;;;;;;5.03;4.55;;;11.20;99.90;;;;;;5084336;28;20411;-75
2022/02/16 08:34:18;;;;;;;5.50;5.00;;;11.30;99.90;;;;;;5086463;28;20032;-74
2022/02/16 08:36:44;;;;;;;5.97;5.47;;;11.40;99.90;;;;;;5085562;28;20042;-74
2022/02/16 08:39:09;;;;;;;5.88;5.28;;;11.40;99.90;;;;;;5094501;28;20099;-73
2022/02/16 08:41:36;;;;;;;8.60;7.15;;;11.40;99.90;;;;;;5086598;28;20100;-74
2022/02/16 08:44:02;;;;;;;8.70;7.13;;;11.40;99.90;;;;;;5087266;28;20366;-76
2022/02/16 08:46:28;;;;;;;7.22;6.57;;;11.50;99.90;;;;;;5087906;28;20030;-76
2022/02/16 08:48:54;;;;;;;8.82;6.88;;;11.50;99.90;;;;;;5087540;28;20109;-76
2022/02/16 08:51:20;;;;;;;7.38;6.50;;;11.50;99.90;;;;;;5086877;28;20049;-74
2022/02/16 08:53:46;;;;;;;8.85;7.95;;;11.60;99.90;;;;;;5088579;28;20460;-77
2022/02/16 08:56:11;;;;;;;9.60;7.65;;;11.60;99.90;;;;;;5088557;28;20031;-75
2022/02/16 08:58:37;;;;;;;9.15;7.15;;;11.60;99.90;;;;;;5087856;28;20028;-75
2022/02/16 09:01:03;;;;;;;6.97;6.32;;;11.70;99.90;;;;;;5092033;28;20046;-75
2022/02/16 09:03:29;;;;;;;7.95;6.43;;;11.70;99.90;;;;;;5085259;28;20103;-75
2022/02/16 09:05:55;;;;;;;8.57;6.10;;;11.80;99.90;;;;;;5086516;28;20024;-74
2022/02/16 09:08:21;;;;;;;8.88;6.25;;;11.80;99.90;;;;;;5087886;28;20031;-75
2022/02/16 09:10:47;;;;;;;5.30;4.40;;;11.80;99.90;;;;;;5087815;28;20025;-76
2022/02/16 09:13:13;;;;;;;6.00;4.15;;;11.80;99.90;;;;;;5088521;28;20099;-74
2022/02/16 09:15:39;;;;;;;6.05;4.40;;;11.90;99.90;;;;;;5091815;28;20542;-75
2022/02/16 09:18:05;;;;;;;4.53;3.75;;;11.90;99.90;;;;;;5085281;28;20032;-79
2022/02/16 09:20:31;;;;;;;4.30;3.83;;;12.00;99.90;;;;;;5091174;28;20421;-76
2022/02/16 09:22:57;;;;;;;4.28;3.88;;;11.90;99.90;;;;;;5082039;28;20062;-76
2022/02/16 09:25:22;;;;;;;3.67;3.33;;;12.00;99.90;;;;;;5088705;28;20346;-75
2022/02/16 09:27:48;;;;;;;7.22;3.75;;;12.00;99.90;;;;;;5089553;28;20035;-75
2022/02/16 09:30:14;;;;;;;2.92;2.72;;;12.10;99.90;;;;;;5083944;28;20042;-75
2022/02/16 09:32:40;;;;;;;2.85;2.55;;;12.20;99.90;;;;;;5086645;28;20039;-76
2022/02/16 09:35:06;;;;;;;3.17;2.47;;;12.20;99.90;;;;;;5085098;28;20071;-74
2022/02/16 09:37:32;;;;;;;3.42;2.00;;;12.20;99.90;;;;;;5087112;28;20207;-75
2022/02/16 09:39:58;;;;;;;2.80;2.60;;;12.20;99.90;;;;;;5088734;28;20035;-74
2022/02/16 09:42:24;;;;;;;2.47;2.13;;;12.20;99.90;;;;;;5091692;28;20035;-74
2022/02/16 09:45:02;;;;;;;3.35;2.28;;;12.30;99.90;;;;;;5090506;28;20028;-74
2022/02/16 09:47:33;;;;;;;3.40;2.17;;;12.30;99.90;;;;;;5090316;28;20023;-75
2022/02/16 09:50:00;;;;;;;1.73;1.52;;;12.40;99.90;;;;;;5091955;28;20044;-75
2022/02/16 09:52:27;;;;;;;3.72;2.00;;;12.40;99.90;;;;;;5091187;28;20447;-76
2022/02/16 09:54:53;;;;;;;3.17;1.67;;;12.40;99.90;;;;;;5089173;28;20396;-75
2022/02/16 09:57:20;;;;;;;2.28;1.80;;;12.50;99.90;;;;;;5085713;28;20507;-74
2022/02/16 09:59:46;;;;;;;2.80;2.00;;;12.50;99.90;;;;;;5088525;28;20027;-75
2022/02/16 10:02:15;;;;;;;4.88;1.83;;;12.50;99.90;;;;;;5087070;28;20511;-76
2022/02/16 10:04:52;;;;;;;3.83;1.60;;;12.50;99.90;;;;;;5090467;28;20039;-75
2022/02/16 10:07:25;;;;;;;6.07;2.00;;;12.50;99.90;;;;;;5086841;28;20020;-76
2022/02/16 10:09:51;;;;;;;;;;;12.60;99.90;;;;;;5087505;28;20012;-74
2022/02/16 10:12:17;;;;;;;1.58;1.48;;;12.60;99.90;;;;;;5082859;28;19904;-76
2022/02/16 10:14:43;;;;;;;2.30;2.10;;;12.70;99.90;;;;;;5086518;28;20128;-76
2022/02/16 10:17:24;;;;;;;2.78;1.27;;;12.70;99.90;;;;;;5085871;28;20091;-76
2022/02/16 10:19:54;;;;;;;2.53;1.80;;;12.70;99.90;;;;;;5084191;28;20451;-75
2022/02/16 10:22:22;;;;;;;2.85;1.70;;;12.70;99.90;;;;;;5087716;28;20346;-76
2022/02/16 10:24:49;;;;;;;2.22;1.80;;;12.70;99.90;;;;;;5087236;28;20113;-76
2022/02/16 10:27:15;;;;;;;2.47;1.85;;;12.70;99.90;;;;;;5085746;28;20027;-74
2022/02/16 10:29:42;;;;;;;1.92;1.60;;;12.80;99.90;;;;;;5084928;28;20372;-75
2022/02/16 10:32:09;;;;;;;3.13;1.70;;;12.80;99.90;;;;;;5087269;28;20028;-76
2022/02/16 10:34:48;;;;;;;1.90;1.77;;;12.80;99.90;;;;;;5083109;28;20039;-76
2022/02/16 10:37:16;;;;;;;1.58;1.48;;;12.80;99.90;;;;;;5089825;28;20115;-76
2022/02/16 10:39:42;;;;;;;2.22;1.70;;;12.80;99.90;;;;;;5087202;28;20024;-76
2022/02/16 10:42:11;;;;;;;4.18;1.98;;;12.80;99.90;;;;;;5082605;28;20021;-75
2022/02/16 10:44:37;;;;;;;2.38;2.17;;;12.90;99.90;;;;;;5083130;28;20108;-76
2022/02/16 10:47:03;;;;;;;4.75;2.28;;;12.90;99.90;;;;;;5084947;28;20017;-76
2022/02/16 10:49:30;;;;;;;2.60;1.70;;;12.90;99.90;;;;;;5091502;28;20473;-76
2022/02/16 10:52:14;;;;;;;2.33;2.08;;;12.90;99.90;;;;;;5084909;28;20012;-76
2022/02/16 10:54:54;;;;;;;4.55;2.15;;;12.80;99.90;;;;;;5083979;28;20115;-75
2022/02/16 10:57:20;;;;;;;2.38;2.17;;;12.90;99.90;;;;;;5083546;28;20030;-76
2022/02/16 10:59:46;;;;;;;3.65;2.47;;;13.00;99.90;;;;;;5084696;28;20028;-76
2022/02/16 11:02:16;;;;;;;3.25;2.35;;;13.10;99.90;;;;;;5085357;28;20388;-76
2022/02/16 11:04:46;;;;;;;2.65;2.00;;;13.10;99.90;;;;;;5086156;28;20066;-76
2022/02/16 11:07:13;;;;;;;1.85;1.73;;;13.10;99.90;;;;;;5080773;28;20419;-78
2022/02/16 11:09:40;;;;;;;2.63;1.67;;;13.00;99.90;;;;;;5088824;28;20032;-75
2022/02/16 11:12:07;;;;;;;2.38;2.17;;;13.00;99.90;;;;;;5085436;28;20034;-74
2022/02/16 11:14:35;;;;;;;2.78;1.90;;;12.90;99.90;;;;;;5085823;28;20093;-74
2022/02/16 11:17:01;;;;;;;2.25;2.05;;;13.00;99.90;;;;;;5092293;28;20019;-75
2022/02/16 11:19:32;;;;;;;3.33;2.35;;;13.00;99.90;;;;;;5079798;28;20508;-75
2022/02/16 11:22:08;;;;;;;7.07;2.58;;;13.10;99.90;;;;;;5086993;28;20020;-74
2022/02/16 11:24:39;;;;;;;2.65;2.15;;;13.10;99.90;;;;;;5089369;28;20024;-75
2022/02/16 11:27:26;;;;;;;5.13;2.05;;;13.00;99.90;;;;;;5093431;28;20065;-75
2022/02/16 11:29:56;;;;;;;4.85;2.72;;;13.10;99.90;;;;;;5090739;28;20388;-74
2022/02/16 11:32:31;;;;;;;5.53;2.60;;;13.10;99.90;;;;;;5092660;28;20024;-75
2022/02/16 11:35:19;;;;;;;7.80;2.47;;;13.10;99.90;;;;;;5092119;28;20077;-75
2022/02/16 11:37:47;;;;;;;4.68;2.92;;;13.00;99.90;;;;;;5086864;28;20036;-74
2022/02/16 11:40:14;;;;;;;5.20;2.50;;;13.20;99.90;;;;;;5089010;28;20111;-76
2022/02/16 11:42:46;;;;;;;7.03;3.15;;;13.10;99.90;;;;;;5087830;28;20496;-75
2022/02/16 11:45:33;;;;;;;7.93;3.30;;;13.20;99.90;;;;;;5089282;28;20028;-75
2022/02/16 11:47:58;;;;;;;6.65;3.38;;;13.20;99.90;;;;;;5090255;28;20319;-75
2022/02/16 11:50:29;;;;;;;7.32;2.58;;;13.20;99.90;;;;;;5091857;28;21397;-75
2022/02/16 11:52:57;;;;;;;7.30;3.47;;;13.10;99.90;;;;;;5087983;28;20027;-75
2022/02/16 11:55:33;;;;;;;8.32;3.17;;;13.20;99.90;;;;;;5092433;28;20032;-75
2022/02/16 11:58:01;;;;;;;7.45;3.00;;;13.20;99.90;;;;;;5089086;28;20525;-75
2022/02/16 12:00:33;;;;;;;10.93;3.30;;;13.20;99.90;;;;;;5091127;28;20028;-77
2022/02/16 12:03:02;;;;;;;10.57;3.40;;;13.20;99.90;;;;;;5087947;28;20024;-76
2022/02/16 12:05:53;;;;;;;7.10;3.17;;;13.30;99.90;;;;;;5090396;28;20380;-75
2022/02/16 12:08:23;;;;;;;8.60;3.47;;;13.30;99.90;;;;;;5088522;28;20108;-76
2022/02/16 12:10:54;;;;;;;6.30;3.08;;;13.30;99.90;;;;;;5087994;28;20494;-75
2022/02/16 12:13:35;;;;;;;8.73;3.08;;;13.40;99.90;;;;;;5089321;28;20022;-76
2022/02/16 12:16:04;;;;;;;7.07;2.80;;;13.40;99.90;;;;;;5086586;28;20031;-75
2022/02/16 12:18:31;;;;;;;7.28;2.55;;;13.40;99.90;;;;;;5095481;28;20384;-76
2022/02/16 12:20:57;;;;;;;12.23;3.05;;;13.40;99.90;;;;;;5090677;28;20115;-77
2022/02/16 12:23:25;;;;;;;11.27;3.38;;;13.30;99.90;;;;;;5093264;28;20465;-75
2022/02/16 12:26:08;;;;;;;10.45;3.28;;;13.30;99.90;;;;;;5084047;28;20032;-76
2022/02/16 12:28:48;;;;;;;7.72;3.03;;;13.30;99.90;;;;;;5088286;28;20024;-76
2022/02/16 12:31:15;;;;;;;12.70;3.08;;;13.30;99.90;;;;;;5082109;28;20090;-76
2022/02/16 12:33:41;;;;;;;8.88;3.17;;;13.30;99.90;;;;;;5088502;28;20036;-76
2022/02/16 12:36:07;;;;;;;7.78;2.83;;;13.20;99.90;;;;;;5088625;28;20021;-76
2022/02/16 12:38:34;;;;;;;12.38;2.85;;;13.30;99.90;;;;;;5089431;28;20121;-76
2022/02/16 12:41:01;;;;;;;16.60;4.00;;;13.30;99.90;;;;;;5085010;28;20024;-76
2022/02/16 12:43:27;;;;;;;16.85;4.07;;;13.30;99.90;;;;;;5087979;28;20043;-76